Time;durP1;ratioP1;P1;durP2;ratioP2;P2;SDS_P1;SDS_P2;PMS_P1;PMS_P2;Temp;Humidity;BMP_temperature;BMP_pressure;BME280_temperature;BME280_humidity;BME280_pressure;Samples;Min_cycle;Max_cycle;Signal;HPM_P1;HPM_P2
2022/12/08 00:00:54;;;;;;;34.50;19.08;;;;;;;;;;5003947;28;20091;-74
2022/12/08 00:03:20;;;;;;;31.17;20.40;;;;;;;;;;5004588;28;20045;-74
2022/12/08 00:11:19;;;;;;;35.78;20.55;;;;;;;;;;5004112;28;20798;-73
2022/12/08 00:13:45;;;;;;;34.50;20.33;;;;;;;;;;5005977;28;20085;-73
2022/12/08 00:16:12;;;;;;;33.35;20.08;;;;;;;;;;5005678;28;20037;-73
2022/12/08 00:18:38;;;;;;;32.22;18.95;;;;;;;;;;5004186;28;20044;-73
2022/12/08 00:21:04;;;;;;;30.23;18.10;;;;;;;;;;5004377;28;20061;-74
2022/12/08 00:23:30;;;;;;;27.92;18.60;;;;;;;;;;5004382;28;20033;-74
2022/12/08 00:25:56;;;;;;;31.98;20.98;;;;;;;;;;5008253;28;20030;-74
2022/12/08 00:28:22;;;;;;;35.20;20.95;;;;;;;;;;5005369;28;20488;-73
2022/12/08 00:30:48;;;;;;;33.55;21.02;;;;;;;;;;5004365;28;20054;-73
2022/12/08 00:33:14;;;;;;;31.38;19.10;;;;;;;;;;5004382;28;20111;-74
2022/12/08 00:35:40;;;;;;;30.20;18.58;;;;;;;;;;5005872;28;20471;-73
2022/12/08 00:38:06;;;;;;;31.05;19.50;;;;;;;;;;5005540;28;20026;-73
2022/12/08 00:40:32;;;;;;;29.65;18.52;;;;;;;;;;5002961;28;20030;-74
2022/12/08 00:42:58;;;;;;;31.67;20.08;;;;;;;;;;5004087;28;20026;-73
2022/12/08 00:45:24;;;;;;;30.13;18.25;;;;;;;;;;5003287;28;20454;-74
2022/12/08 00:47:50;;;;;;;31.45;18.73;;;;;;;;;;5002192;28;20038;-73
2022/12/08 00:50:16;;;;;;;32.47;17.90;;;;;;;;;;5001873;28;20034;-73
2022/12/08 00:52:42;;;;;;;32.50;19.65;;;;;;;;;;5001870;28;20174;-73
2022/12/08 00:55:08;;;;;;;34.03;19.08;;;;;;;;;;5002430;28;20069;-73
2022/12/08 00:57:34;;;;;;;34.55;19.77;;;;;;;;;;5004562;28;20096;-73
2022/12/08 01:00:00;;;;;;;31.10;19.30;;;;;;;;;;5003057;28;20049;-73
2022/12/08 01:02:26;;;;;;;30.38;19.52;;;;;;;;;;5003167;28;20030;-73
2022/12/08 01:04:52;;;;;;;32.28;20.17;;;;;;;;;;5006349;28;20073;-73
2022/12/08 01:07:18;;;;;;;31.27;20.30;;;;;;;;;;5007385;28;20117;-73
2022/12/08 01:09:44;;;;;;;33.35;19.80;;;;;;;;;;5001589;28;20034;-74
2022/12/08 01:12:10;;;;;;;31.30;19.35;;;;;;;;;;5002357;28;20361;-73
2022/12/08 01:14:36;;;;;;;34.35;20.35;;;;;;;;;;5004251;28;20038;-74
2022/12/08 01:17:02;;;;;;;33.33;20.35;;;;;;;;;;5003340;28;20820;-74
2022/12/08 01:19:29;;;;;;;37.85;20.08;;;;;;;;;;5004365;28;20756;-74
2022/12/08 01:21:55;;;;;;;31.08;18.23;;;;;;;;;;5006445;28;20025;-73
2022/12/08 01:24:21;;;;;;;33.15;19.38;;;;;;;;;;5003653;28;20046;-73
2022/12/08 01:26:48;;;;;;;30.75;17.70;;;;;;;;;;5001448;28;20069;-73
2022/12/08 01:29:14;;;;;;;31.95;20.38;;;;;;;;;;5004548;28;20093;-74
2022/12/08 01:31:40;;;;;;;30.35;17.85;;;;;;;;;;5000639;28;20486;-73
2022/12/08 01:34:07;;;;;;;32.03;18.20;;;;;;;;;;5003217;28;20949;-73
2022/12/08 01:36:37;;;;;;;33.75;19.40;;;;;;;;;;5003061;28;20028;-73
2022/12/08 01:39:04;;;;;;;36.08;19.20;;;;;;;;;;5001320;28;20044;-73
2022/12/08 01:41:31;;;;;;;30.20;17.85;;;;;;;;;;5001018;28;20030;-74
2022/12/08 01:43:57;;;;;;;31.85;18.40;;;;;;;;;;5001324;28;20040;-73
2022/12/08 01:46:24;;;;;;;30.48;18.08;;;;;;;;;;5000886;28;20038;-73
2022/12/08 01:48:54;;;;;;;32.63;19.35;;;;;;;;;;5005690;28;20038;-74
2022/12/08 01:51:20;;;;;;;29.80;19.00;;;;;;;;;;5005128;28;20085;-73
2022/12/08 01:53:46;;;;;;;31.15;17.95;;;;;;;;;;5003167;28;21129;-73
2022/12/08 01:56:15;;;;;;;29.67;17.42;;;;;;;;;;5004189;28;20040;-73
2022/12/08 01:58:43;;;;;;;30.00;18.15;;;;;;;;;;5002937;28;20036;-73
2022/12/08 02:01:09;;;;;;;31.48;18.02;;;;;;;;;;5002991;28;20032;-73
2022/12/08 02:03:43;;;;;;;31.92;18.10;;;;;;;;;;5001956;28;20038;-73
2022/12/08 02:06:10;;;;;;;33.28;19.20;;;;;;;;;;5001741;28;20030;-73
2022/12/08 02:08:38;;;;;;;31.98;17.92;;;;;;;;;;5000883;28;20058;-73
2022/12/08 02:11:11;;;;;;;28.17;17.13;;;;;;;;;;5004269;28;20030;-73
2022/12/08 02:13:37;;;;;;;31.80;18.58;;;;;;;;;;5001585;28;20665;-73
2022/12/08 02:16:21;;;;;;;30.15;17.05;;;;;;;;;;5003501;28;20524;-73
2022/12/08 02:19:00;;;;;;;28.23;16.75;;;;;;;;;;5002317;28;20035;-74
2022/12/08 02:21:29;;;;;;;31.75;18.65;;;;;;;;;;5000331;28;20112;-73
2022/12/08 02:23:58;;;;;;;27.67;16.77;;;;;;;;;;5003079;28;20037;-73
2022/12/08 02:26:30;;;;;;;25.70;15.93;;;;;;;;;;5002531;28;20037;-73
2022/12/08 02:29:14;;;;;;;31.15;17.55;;;;;;;;;;4998095;28;20108;-73
2022/12/08 02:31:52;;;;;;;27.52;16.08;;;;;;;;;;5003282;28;20046;-73
2022/12/08 02:34:25;;;;;;;27.42;16.55;;;;;;;;;;5001150;28;20113;-73
2022/12/08 02:36:57;;;;;;;30.13;16.65;;;;;;;;;;5003721;28;20042;-73
2022/12/08 02:39:26;;;;;;;29.85;18.20;;;;;;;;;;5000126;28;20041;-73
2022/12/08 02:42:08;;;;;;;26.63;16.75;;;;;;;;;;5000354;28;20026;-73
2022/12/08 02:44:41;;;;;;;27.67;17.38;;;;;;;;;;5003181;28;20049;-73
2022/12/08 02:47:12;;;;;;;28.92;17.40;;;;;;;;;;5002875;28;20049;-73
2022/12/08 02:49:38;;;;;;;31.38;18.42;;;;;;;;;;5001772;28;20066;-74
2022/12/08 02:52:08;;;;;;;30.35;17.52;;;;;;;;;;5001404;28;20030;-73
2022/12/08 02:54:35;;;;;;;31.33;18.63;;;;;;;;;;4998803;28;20373;-73
2022/12/08 02:57:13;;;;;;;29.13;18.58;;;;;;;;;;4984608;28;20393;-73
2022/12/08 02:59:42;;;;;;;28.02;17.00;;;;;;;;;;4998115;28;20041;-73
2022/12/08 03:02:20;;;;;;;30.85;18.98;;;;;;;;;;5002485;28;20036;-73
2022/12/08 03:05:06;;;;;;;29.83;18.73;;;;;;;;;;5001064;28;20096;-73
2022/12/08 03:07:40;;;;;;;30.98;18.05;;;;;;;;;;4995762;28;20781;-73
2022/12/08 03:10:15;;;;;;;33.03;18.20;;;;;;;;;;5004589;28;20044;-73
2022/12/08 03:12:49;;;;;;;28.65;17.42;;;;;;;;;;5001563;28;20035;-74
2022/12/08 03:15:17;;;;;;;31.10;18.42;;;;;;;;;;4998920;28;20381;-73
2022/12/08 03:17:46;;;;;;;28.45;17.73;;;;;;;;;;5004582;28;20096;-73
2022/12/08 03:20:14;;;;;;;28.73;17.42;;;;;;;;;;5003571;28;20042;-73
2022/12/08 03:22:41;;;;;;;28.77;17.67;;;;;;;;;;5001056;28;20045;-73
2022/12/08 03:25:09;;;;;;;28.50;18.42;;;;;;;;;;5003325;28;20053;-73
2022/12/08 03:27:35;;;;;;;33.05;19.10;;;;;;;;;;4999400;28;20036;-73
2022/12/08 03:30:01;;;;;;;28.45;18.70;;;;;;;;;;4988129;28;20550;-73
2022/12/08 03:32:40;;;;;;;29.98;18.02;;;;;;;;;;5002522;28;20705;-73
2022/12/08 03:35:08;;;;;;;27.90;17.02;;;;;;;;;;5000581;28;20034;-74
2022/12/08 03:37:35;;;;;;;27.55;18.08;;;;;;;;;;5001480;28;20089;-73
2022/12/08 03:40:01;;;;;;;27.55;17.67;;;;;;;;;;5000544;28;20053;-74
2022/12/08 03:42:27;;;;;;;30.52;18.45;;;;;;;;;;5001672;28;20054;-74
2022/12/08 03:44:53;;;;;;;29.98;17.55;;;;;;;;;;5001828;28;20100;-74
2022/12/08 03:47:19;;;;;;;31.88;19.95;;;;;;;;;;4987136;28;20704;-73
2022/12/08 03:49:45;;;;;;;32.92;18.98;;;;;;;;;;4994773;28;20057;-73
2022/12/08 03:52:11;;;;;;;27.95;18.27;;;;;;;;;;4998031;28;20032;-73
2022/12/08 03:54:37;;;;;;;34.28;20.33;;;;;;;;;;4996104;28;20767;-73
2022/12/08 03:57:03;;;;;;;31.48;18.90;;;;;;;;;;5002460;28;20030;-74
2022/12/08 03:59:29;;;;;;;30.00;18.05;;;;;;;;;;5003668;28;20046;-74
2022/12/08 04:01:55;;;;;;;28.38;17.35;;;;;;;;;;5005156;28;20746;-74
2022/12/08 04:04:21;;;;;;;30.52;19.55;;;;;;;;;;5002976;28;20042;-74
2022/12/08 04:06:47;;;;;;;29.92;19.65;;;;;;;;;;5001226;28;20030;-74
2022/12/08 04:09:13;;;;;;;32.38;20.05;;;;;;;;;;5003723;28;20116;-73
2022/12/08 04:11:39;;;;;;;30.85;18.80;;;;;;;;;;4998265;28;20034;-73
2022/12/08 04:14:05;;;;;;;32.60;19.13;;;;;;;;;;5003530;28;20038;-74
2022/12/08 04:16:31;;;;;;;34.33;20.70;;;;;;;;;;5007060;28;20034;-74
2022/12/08 04:18:57;;;;;;;29.83;18.88;;;;;;;;;;5007451;28;20830;-73
2022/12/08 04:21:23;;;;;;;29.90;19.08;;;;;;;;;;5004078;28;20033;-73
2022/12/08 04:23:49;;;;;;;103.85;49.75;;;;;;;;;;5001101;28;20157;-74
2022/12/08 04:26:16;;;;;;;79.10;38.25;;;;;;;;;;5007151;28;20786;-73
2022/12/08 04:28:42;;;;;;;123.50;53.05;;;;;;;;;;5004006;28;20134;-74
2022/12/08 04:31:08;;;;;;;147.10;62.90;;;;;;;;;;5004871;28;20516;-74
2022/12/08 04:33:34;;;;;;;49.42;24.88;;;;;;;;;;5000530;28;20042;-73
2022/12/08 04:36:00;;;;;;;73.07;36.75;;;;;;;;;;5001036;28;20057;-74
2022/12/08 04:38:27;;;;;;;62.05;32.95;;;;;;;;;;5004395;28;20088;-74
2022/12/08 04:40:53;;;;;;;53.67;30.58;;;;;;;;;;5001254;28;20032;-73
2022/12/08 04:43:19;;;;;;;34.63;20.52;;;;;;;;;;5007141;28;20048;-73
2022/12/08 04:45:45;;;;;;;33.13;20.95;;;;;;;;;;4986799;28;20034;-73
2022/12/08 04:48:12;;;;;;;32.40;19.45;;;;;;;;;;4987991;28;20079;-73
2022/12/08 04:50:39;;;;;;;32.90;19.90;;;;;;;;;;5006242;28;20040;-73
2022/12/08 04:53:05;;;;;;;34.55;21.80;;;;;;;;;;5000369;28;20032;-73
2022/12/08 04:55:31;;;;;;;32.90;19.00;;;;;;;;;;5004874;28;20026;-73
2022/12/08 04:57:57;;;;;;;32.70;19.70;;;;;;;;;;5005891;28;20052;-73
2022/12/08 05:00:23;;;;;;;32.10;20.02;;;;;;;;;;5003652;28;20053;-73
2022/12/08 05:02:49;;;;;;;31.52;18.65;;;;;;;;;;5001895;28;20062;-74
2022/12/08 05:05:15;;;;;;;33.92;19.40;;;;;;;;;;5004396;28;20078;-74
2022/12/08 05:07:41;;;;;;;33.53;19.13;;;;;;;;;;5003564;28;20085;-73
2022/12/08 05:10:08;;;;;;;34.20;20.30;;;;;;;;;;5006096;28;20033;-73
2022/12/08 05:12:34;;;;;;;35.08;20.35;;;;;;;;;;5004658;28;20056;-73
2022/12/08 05:15:00;;;;;;;35.75;21.52;;;;;;;;;;4999411;28;20030;-73
2022/12/08 05:17:25;;;;;;;31.85;19.52;;;;;;;;;;4995565;28;20057;-73
2022/12/08 05:19:51;;;;;;;32.60;19.83;;;;;;;;;;5001841;28;20046;-73
2022/12/08 05:22:17;;;;;;;32.13;19.48;;;;;;;;;;5005806;28;20037;-73
2022/12/08 05:24:43;;;;;;;33.67;20.20;;;;;;;;;;5007008;28;20080;-73
2022/12/08 05:27:10;;;;;;;36.55;23.00;;;;;;;;;;5003227;28;20061;-73
2022/12/08 05:29:36;;;;;;;36.45;21.77;;;;;;;;;;5003159;28;20409;-73
2022/12/08 05:32:02;;;;;;;33.08;19.33;;;;;;;;;;5002490;28;20037;-73
2022/12/08 05:34:28;;;;;;;33.42;19.90;;;;;;;;;;5002387;28;20047;-73
2022/12/08 05:36:55;;;;;;;34.30;19.70;;;;;;;;;;5004519;28;20503;-73
2022/12/08 05:39:21;;;;;;;34.63;18.85;;;;;;;;;;5004042;28;20099;-73
2022/12/08 05:41:47;;;;;;;30.92;17.75;;;;;;;;;;5004469;28;20570;-73
2022/12/08 05:44:12;;;;;;;32.30;19.70;;;;;;;;;;5004145;28;20038;-73
2022/12/08 05:46:39;;;;;;;27.83;17.58;;;;;;;;;;5002144;28;20405;-74
2022/12/08 05:49:05;;;;;;;30.90;18.08;;;;;;;;;;5003596;28;20069;-73
2022/12/08 05:51:31;;;;;;;32.80;19.33;;;;;;;;;;5006246;28;20065;-73
2022/12/08 05:53:57;;;;;;;29.50;17.67;;;;;;;;;;5003043;28;20180;-73
2022/12/08 05:56:23;;;;;;;33.17;19.60;;;;;;;;;;5002121;28;20044;-73
2022/12/08 05:58:49;;;;;;;32.05;18.33;;;;;;;;;;5001040;28;20076;-73
2022/12/08 06:01:18;;;;;;;33.10;18.15;;;;;;;;;;5001090;28;20043;-73
2022/12/08 06:03:44;;;;;;;30.75;18.42;;;;;;;;;;5002437;28;20041;-73
2022/12/08 06:06:10;;;;;;;33.78;19.55;;;;;;;;;;5003580;28;20037;-73
2022/12/08 06:08:36;;;;;;;30.27;17.52;;;;;;;;;;5001916;28;20076;-73
2022/12/08 06:11:02;;;;;;;29.23;17.77;;;;;;;;;;5003789;28;20088;-73
2022/12/08 06:13:28;;;;;;;36.67;19.63;;;;;;;;;;4995284;28;20367;-73
2022/12/08 06:15:54;;;;;;;35.35;18.65;;;;;;;;;;5002571;28;20053;-73
2022/12/08 06:18:20;;;;;;;34.53;17.30;;;;;;;;;;5004624;28;20714;-73
2022/12/08 06:20:46;;;;;;;31.73;18.83;;;;;;;;;;5000659;28;20041;-73
2022/12/08 06:23:12;;;;;;;33.38;19.63;;;;;;;;;;5003816;28;20046;-73
2022/12/08 06:25:38;;;;;;;39.55;20.58;;;;;;;;;;5003722;28;20108;-73
2022/12/08 06:28:05;;;;;;;32.03;18.60;;;;;;;;;;5000540;28;20064;-74
2022/12/08 06:30:32;;;;;;;34.63;20.45;;;;;;;;;;5002508;28;20702;-73
2022/12/08 06:32:57;;;;;;;36.05;19.85;;;;;;;;;;5002353;28;20089;-73
2022/12/08 06:35:23;;;;;;;35.60;21.20;;;;;;;;;;5002495;28;20034;-73
2022/12/08 06:37:50;;;;;;;33.88;20.13;;;;;;;;;;5002763;28;20070;-74
2022/12/08 06:40:16;;;;;;;39.03;22.50;;;;;;;;;;5002728;28;20088;-73
2022/12/08 06:42:43;;;;;;;31.77;18.90;;;;;;;;;;5003456;28;20042;-73
2022/12/08 06:45:10;;;;;;;32.03;18.38;;;;;;;;;;5002959;28;20064;-73
2022/12/08 06:47:36;;;;;;;42.08;20.88;;;;;;;;;;5004385;28;20096;-73
2022/12/08 06:50:03;;;;;;;37.70;17.17;;;;;;;;;;5001877;28;20069;-73
2022/12/08 06:52:29;;;;;;;45.35;24.05;;;;;;;;;;5003979;28;20037;-73
2022/12/08 06:54:55;;;;;;;46.22;23.17;;;;;;;;;;5002044;28;20033;-73
2022/12/08 06:57:22;;;;;;;33.25;18.60;;;;;;;;;;5002405;28;20029;-73
2022/12/08 06:59:48;;;;;;;41.35;18.52;;;;;;;;;;5002883;28;20026;-73
2022/12/08 07:02:16;;;;;;;37.15;18.70;;;;;;;;;;5003677;28;20075;-74
2022/12/08 07:04:42;;;;;;;40.72;21.10;;;;;;;;;;5001940;28;20066;-74
2022/12/08 07:07:08;;;;;;;46.75;25.35;;;;;;;;;;5000549;28;20057;-73
2022/12/08 07:09:34;;;;;;;45.67;25.23;;;;;;;;;;5000851;28;20117;-73
2022/12/08 07:12:00;;;;;;;43.33;24.50;;;;;;;;;;5002259;28;20092;-73
2022/12/08 07:14:26;;;;;;;48.78;25.40;;;;;;;;;;5003037;28;20526;-73
2022/12/08 07:16:52;;;;;;;44.28;27.55;;;;;;;;;;4998991;28;20038;-73
2022/12/08 07:19:18;;;;;;;52.03;28.80;;;;;;;;;;4999597;28;20034;-73
2022/12/08 07:21:44;;;;;;;50.80;27.55;;;;;;;;;;5005421;28;20057;-74
2022/12/08 07:24:10;;;;;;;64.95;36.28;;;;;;;;;;4997987;28;20113;-74
2022/12/08 07:26:36;;;;;;;59.88;31.88;;;;;;;;;;4996272;28;20044;-74
2022/12/08 07:29:03;;;;;;;75.00;40.65;;;;;;;;;;5000016;28;20385;-73
2022/12/08 07:31:29;;;;;;;41.38;21.13;;;;;;;;;;5005164;28;20078;-74
2022/12/08 07:33:55;;;;;;;36.92;21.05;;;;;;;;;;5002235;28;20100;-73
2022/12/08 07:36:21;;;;;;;34.90;18.27;;;;;;;;;;5002638;28;20045;-73
2022/12/08 07:38:48;;;;;;;31.33;17.33;;;;;;;;;;5003156;28;20676;-73
2022/12/08 07:41:14;;;;;;;34.78;19.75;;;;;;;;;;5003294;28;20034;-73
2022/12/08 07:43:41;;;;;;;31.92;17.58;;;;;;;;;;5000864;28;20052;-73
2022/12/08 07:46:07;;;;;;;35.00;18.48;;;;;;;;;;5004049;28;20481;-73
2022/12/08 07:48:33;;;;;;;35.30;21.13;;;;;;;;;;5001631;28;20038;-73
2022/12/08 07:51:00;;;;;;;32.45;19.20;;;;;;;;;;4988294;28;20099;-72
2022/12/08 07:53:26;;;;;;;29.63;18.25;;;;;;;;;;5001006;28;20065;-72
2022/12/08 07:55:52;;;;;;;34.85;20.05;;;;;;;;;;5008850;28;20071;-72
2022/12/08 07:58:18;;;;;;;32.55;20.10;;;;;;;;;;5004083;28;20057;-72
2022/12/08 08:00:44;;;;;;;41.60;25.00;;;;;;;;;;5004979;28;20105;-72
2022/12/08 08:03:11;;;;;;;49.25;28.05;;;;;;;;;;5008067;28;20059;-72
2022/12/08 08:05:37;;;;;;;49.22;27.92;;;;;;;;;;5003722;28;20034;-72
2022/12/08 08:08:03;;;;;;;55.65;29.55;;;;;;;;;;5002786;28;20457;-72
2022/12/08 08:10:29;;;;;;;53.38;28.52;;;;;;;;;;5003188;28;20106;-73
2022/12/08 08:12:57;;;;;;;58.95;29.45;;;;;;;;;;5006619;28;20036;-72
2022/12/08 08:15:24;;;;;;;55.00;28.95;;;;;;;;;;5007244;28;20028;-72
2022/12/08 08:17:50;;;;;;;52.83;29.30;;;;;;;;;;5006161;28;20053;-72
2022/12/08 08:20:17;;;;;;;59.92;33.28;;;;;;;;;;5007644;28;20623;-72
2022/12/08 08:22:44;;;;;;;50.85;27.33;;;;;;;;;;5007072;28;20146;-72
2022/12/08 08:25:10;;;;;;;33.13;19.77;;;;;;;;;;5005792;28;20041;-72
2022/12/08 08:27:36;;;;;;;32.10;18.75;;;;;;;;;;5006061;28;20034;-72
2022/12/08 08:30:02;;;;;;;32.33;18.13;;;;;;;;;;5006142;28;20061;-72
2022/12/08 08:32:32;;;;;;;31.35;17.35;;;;;;;;;;5004021;28;20029;-72
2022/12/08 08:34:58;;;;;;;33.10;19.90;;;;;;;;;;5004140;28;20034;-72
2022/12/08 08:37:24;;;;;;;31.55;18.05;;;;;;;;;;5005428;28;20026;-72
2022/12/08 08:39:49;;;;;;;30.88;17.17;;;;;;;;;;5006988;28;20096;-72
2022/12/08 08:42:15;;;;;;;31.23;18.00;;;;;;;;;;5004558;28;20393;-73
2022/12/08 08:44:41;;;;;;;39.67;22.73;;;;;;;;;;5002380;28;20042;-73
2022/12/08 08:47:08;;;;;;;47.95;26.63;;;;;;;;;;5006360;28;20473;-72
2022/12/08 08:49:34;;;;;;;61.10;34.97;;;;;;;;;;5004803;28;20080;-72
2022/12/08 08:52:00;;;;;;;65.68;38.30;;;;;;;;;;5004693;28;20057;-72
2022/12/08 08:54:28;;;;;;;72.30;37.65;;;;;;;;;;5006529;28;20236;-72
2022/12/08 08:56:54;;;;;;;53.97;29.45;;;;;;;;;;5007115;28;20106;-73
2022/12/08 08:59:20;;;;;;;54.60;31.10;;;;;;;;;;5004335;28;20156;-73
2022/12/08 09:01:46;;;;;;;47.28;26.35;;;;;;;;;;5001072;28;20031;-72
2022/12/08 09:04:12;;;;;;;43.63;25.30;;;;;;;;;;5005878;28;20053;-72
2022/12/08 09:06:38;;;;;;;46.42;24.75;;;;;;;;;;5006110;28;20029;-73
2022/12/08 09:09:04;;;;;;;47.83;24.25;;;;;;;;;;5007047;28;20473;-72
2022/12/08 09:11:31;;;;;;;43.00;23.23;;;;;;;;;;5002483;28;20126;-72
2022/12/08 09:13:57;;;;;;;49.88;25.92;;;;;;;;;;4987450;28;20467;-73
2022/12/08 09:16:23;;;;;;;50.25;27.17;;;;;;;;;;5002039;28;20029;-72
2022/12/08 09:18:49;;;;;;;50.00;26.33;;;;;;;;;;5002001;28;20041;-72
2022/12/08 09:21:19;;;;;;;48.58;25.67;;;;;;;;;;5004603;28;20025;-73
2022/12/08 09:23:45;;;;;;;46.45;24.65;;;;;;;;;;5004081;28;20037;-72
2022/12/08 09:26:11;;;;;;;49.33;26.30;;;;;;;;;;5000329;28;20057;-72
2022/12/08 09:28:37;;;;;;;46.92;29.30;;;;;;;;;;5004099;28;20041;-73
2022/12/08 09:31:04;;;;;;;55.67;30.33;;;;;;;;;;4987276;28;20042;-72
2022/12/08 09:33:30;;;;;;;50.88;26.33;;;;;;;;;;5005911;28;20034;-73
2022/12/08 09:35:56;;;;;;;54.10;27.13;;;;;;;;;;4988394;28;20030;-73
2022/12/08 09:38:22;;;;;;;53.47;29.63;;;;;;;;;;5005573;28;20034;-73
2022/12/08 09:40:49;;;;;;;56.55;28.17;;;;;;;;;;5004714;28;20026;-73
2022/12/08 09:43:34;;;;;;;55.35;30.73;;;;;;;;;;5006546;28;20042;-73
2022/12/08 09:46:01;;;;;;;48.42;24.42;;;;;;;;;;5005618;28;20037;-73
2022/12/08 09:48:32;;;;;;;59.22;29.38;;;;;;;;;;5002826;28;20042;-72
2022/12/08 09:50:58;;;;;;;56.83;28.90;;;;;;;;;;5004653;28;20030;-72
2022/12/08 09:53:24;;;;;;;55.22;31.63;;;;;;;;;;5001350;28;20034;-73
2022/12/08 09:55:53;;;;;;;48.30;27.58;;;;;;;;;;4984739;28;20362;-73
2022/12/08 09:58:28;;;;;;;53.50;28.63;;;;;;;;;;5005554;28;20057;-72
2022/12/08 10:00:54;;;;;;;51.10;28.90;;;;;;;;;;5002976;28;20026;-72
2022/12/08 10:03:22;;;;;;;67.90;29.77;;;;;;;;;;5003925;28;20370;-72
2022/12/08 10:05:56;;;;;;;58.72;27.45;;;;;;;;;;4987333;28;20743;-72
2022/12/08 10:08:27;;;;;;;56.15;27.10;;;;;;;;;;4997410;28;20393;-72
2022/12/08 10:10:58;;;;;;;47.10;25.30;;;;;;;;;;5004601;28;20125;-73
2022/12/08 10:13:31;;;;;;;45.20;25.88;;;;;;;;;;5004134;28;20033;-72
2022/12/08 10:15:58;;;;;;;45.65;24.67;;;;;;;;;;5005670;28;20487;-73
2022/12/08 10:18:26;;;;;;;42.83;23.88;;;;;;;;;;5005124;28;20046;-72
2022/12/08 10:20:52;;;;;;;37.70;21.42;;;;;;;;;;5004592;28;20030;-72
2022/12/08 10:23:28;;;;;;;31.20;18.80;;;;;;;;;;5001673;28;20034;-72
2022/12/08 10:26:04;;;;;;;34.95;19.17;;;;;;;;;;4998255;28;20104;-73
2022/12/08 10:28:31;;;;;;;36.40;18.55;;;;;;;;;;5000252;28;20040;-72
2022/12/08 10:30:57;;;;;;;35.72;17.88;;;;;;;;;;5003139;28;20037;-73
2022/12/08 10:33:23;;;;;;;35.88;16.58;;;;;;;;;;5004829;28;20069;-72
2022/12/08 10:35:55;;;;;;;43.33;23.40;;;;;;;;;;5004029;28;20551;-73
2022/12/08 10:38:34;;;;;;;47.20;23.00;;;;;;;;;;4995584;28;20041;-73
2022/12/08 10:41:06;;;;;;;41.33;20.92;;;;;;;;;;5001735;28;20045;-73
2022/12/08 10:43:32;;;;;;;38.40;19.35;;;;;;;;;;5000373;28;20366;-72
2022/12/08 10:46:09;;;;;;;42.42;20.00;;;;;;;;;;4998715;28;20034;-72
2022/12/08 10:48:35;;;;;;;33.97;19.50;;;;;;;;;;5000077;28;20609;-73
2022/12/08 10:51:04;;;;;;;31.90;18.38;;;;;;;;;;5003163;28;20034;-72
2022/12/08 10:53:34;;;;;;;45.08;27.02;;;;;;;;;;5002899;28;20067;-72
2022/12/08 10:56:03;;;;;;;50.72;30.35;;;;;;;;;;4997403;28;20064;-73
2022/12/08 10:58:39;;;;;;;73.22;40.17;;;;;;;;;;5003489;28;20030;-72
2022/12/08 11:01:08;;;;;;;104.95;52.92;;;;;;;;;;5002443;28;20046;-72
2022/12/08 11:03:38;;;;;;;88.30;42.60;;;;;;;;;;5004416;28;20556;-72
2022/12/08 11:06:18;;;;;;;38.65;19.75;;;;;;;;;;5001501;28;20428;-72
2022/12/08 11:08:46;;;;;;;28.02;12.32;;;;;;;;;;5000998;28;20109;-72
2022/12/08 11:11:13;;;;;;;26.77;14.88;;;;;;;;;;5000118;28;20630;-72
2022/12/08 11:13:40;;;;;;;32.22;19.55;;;;;;;;;;5004968;28;20489;-72
2022/12/08 11:16:06;;;;;;;36.30;20.75;;;;;;;;;;5002568;28;20609;-73
2022/12/08 11:18:39;;;;;;;38.50;17.70;;;;;;;;;;5001869;28;20034;-72
2022/12/08 11:21:07;;;;;;;37.80;19.75;;;;;;;;;;5002010;28;20045;-72
2022/12/08 11:23:35;;;;;;;26.25;14.80;;;;;;;;;;5003366;28;20041;-73
2022/12/08 11:26:04;;;;;;;21.38;11.82;;;;;;;;;;5001596;28;20045;-72
2022/12/08 11:28:30;;;;;;;20.17;10.45;;;;;;;;;;5003874;28;20130;-72
2022/12/08 11:31:00;;;;;;;15.85;9.75;;;;;;;;;;5002008;28;20539;-73
2022/12/08 11:33:26;;;;;;;21.10;11.68;;;;;;;;;;5002138;28;20026;-72
2022/12/08 11:35:55;;;;;;;23.50;11.60;;;;;;;;;;5001259;28;20039;-72
2022/12/08 11:38:23;;;;;;;19.05;10.73;;;;;;;;;;5003298;28;20026;-72
2022/12/08 11:40:54;;;;;;;21.80;12.02;;;;;;;;;;5002932;28;20830;-72
2022/12/08 11:43:20;;;;;;;30.30;15.98;;;;;;;;;;5003040;28;20058;-72
2022/12/08 11:45:49;;;;;;;24.23;10.95;;;;;;;;;;5002263;28;20049;-72
2022/12/08 11:48:19;;;;;;;23.77;10.45;;;;;;;;;;5002177;28;20048;-72
2022/12/08 11:50:50;;;;;;;20.75;12.88;;;;;;;;;;5001614;28;20409;-73
2022/12/08 11:53:38;;;;;;;23.67;13.30;;;;;;;;;;5001319;28;20346;-72
2022/12/08 11:56:16;;;;;;;20.17;10.52;;;;;;;;;;5002231;28;20030;-72
2022/12/08 11:58:48;;;;;;;15.32;8.10;;;;;;;;;;5001125;28;20293;-72
2022/12/08 12:01:21;;;;;;;11.82;6.15;;;;;;;;;;5001010;28;20124;-73
2022/12/08 12:03:51;;;;;;;12.57;6.32;;;;;;;;;;5000762;28;20040;-72
2022/12/08 12:06:17;;;;;;;10.32;5.88;;;;;;;;;;4998929;28;20042;-72
2022/12/08 12:08:49;;;;;;;11.73;4.93;;;;;;;;;;5001287;28;20129;-73
2022/12/08 12:14:40;;;;;;;12.15;4.82;;;;;;;;;;5001382;28;20041;-73
2022/12/08 12:17:09;;;;;;;8.98;3.80;;;;;;;;;;4964605;28;20496;-72
2022/12/08 12:19:37;;;;;;;7.57;3.63;;;;;;;;;;5001617;28;20033;-72
2022/12/08 12:22:11;;;;;;;7.15;3.33;;;;;;;;;;4999313;28;20037;-72
2022/12/08 12:24:38;;;;;;;9.40;3.80;;;;;;;;;;5001566;28;20037;-72
2022/12/08 12:27:13;;;;;;;9.38;4.00;;;;;;;;;;5001935;28;20628;-73
2022/12/08 12:29:45;;;;;;;9.20;4.82;;;;;;;;;;5001462;28;20050;-72
2022/12/08 12:32:12;;;;;;;10.17;5.73;;;;;;;;;;4999159;28;20069;-72
2022/12/08 12:34:44;;;;;;;14.40;6.22;;;;;;;;;;5002744;28;20034;-72
2022/12/08 12:37:11;;;;;;;11.32;6.22;;;;;;;;;;5002117;28;20077;-73
2022/12/08 12:39:53;;;;;;;11.48;5.38;;;;;;;;;;5007238;28;20034;-72
2022/12/08 12:42:42;;;;;;;12.03;5.87;;;;;;;;;;5004860;28;20034;-73
2022/12/08 12:45:18;;;;;;;12.43;6.80;;;;;;;;;;4967730;28;20429;-72
2022/12/08 12:47:44;;;;;;;14.10;6.40;;;;;;;;;;5001765;28;20041;-72
2022/12/08 12:50:12;;;;;;;13.63;7.13;;;;;;;;;;5005696;28;20116;-73
2022/12/08 12:52:38;;;;;;;15.27;7.43;;;;;;;;;;5006801;28;20613;-72
2022/12/08 12:55:10;;;;;;;17.58;7.75;;;;;;;;;;5004156;28;20113;-72
2022/12/08 12:57:50;;;;;;;16.77;7.22;;;;;;;;;;5003370;28;20038;-72
2022/12/08 13:00:21;;;;;;;18.77;8.40;;;;;;;;;;5003788;28;20038;-72
2022/12/08 13:02:47;;;;;;;17.48;9.35;;;;;;;;;;5005835;28;20041;-73
2022/12/08 13:05:25;;;;;;;14.77;8.50;;;;;;;;;;5004199;28;20045;-73
2022/12/08 13:08:01;;;;;;;19.25;8.65;;;;;;;;;;5001109;28;20465;-72
2022/12/08 13:10:30;;;;;;;13.55;6.70;;;;;;;;;;4979808;28;20414;-72
2022/12/08 13:13:13;;;;;;;15.38;7.65;;;;;;;;;;5004463;28;20117;-73
2022/12/08 13:15:53;;;;;;;17.50;8.82;;;;;;;;;;5003751;28;20030;-73
2022/12/08 13:18:20;;;;;;;18.55;8.10;;;;;;;;;;5005714;28;20034;-73
2022/12/08 13:20:50;;;;;;;17.17;8.80;;;;;;;;;;5004543;28;20040;-72
2022/12/08 13:23:27;;;;;;;19.08;8.23;;;;;;;;;;5003505;28;20392;-73
2022/12/08 13:26:08;;;;;;;12.27;7.60;;;;;;;;;;5002052;28;20034;-72
2022/12/08 13:28:54;;;;;;;12.48;7.80;;;;;;;;;;4986863;28;20041;-72
2022/12/08 13:31:35;;;;;;;15.25;6.95;;;;;;;;;;5004341;28;20196;-73
2022/12/08 13:34:04;;;;;;;15.52;7.60;;;;;;;;;;5005774;28;20038;-73
2022/12/08 13:36:37;;;;;;;13.73;6.85;;;;;;;;;;5004836;28;20121;-72
2022/12/08 13:39:02;;;;;;;;;;;;;;;;;;4988101;28;20125;-73
2022/12/08 13:41:37;;;;;;;19.02;8.63;;;;;;;;;;5000335;28;19913;-72
2022/12/08 13:44:05;;;;;;;14.75;8.15;;;;;;;;;;5002347;28;20040;-73
2022/12/08 13:46:35;;;;;;;13.52;8.02;;;;;;;;;;5004280;28;20034;-73
2022/12/08 13:49:02;;;;;;;14.38;7.88;;;;;;;;;;5004657;28;20081;-73
2022/12/08 13:51:35;;;;;;;17.10;8.27;;;;;;;;;;5002917;28;20033;-73
2022/12/08 13:54:05;;;;;;;25.02;12.02;;;;;;;;;;5002224;28;20018;-72
2022/12/08 13:56:36;;;;;;;25.55;15.02;;;;;;;;;;5002013;28;20484;-72
2022/12/08 13:59:24;;;;;;;20.88;10.15;;;;;;;;;;5002700;28;20026;-73
2022/12/08 14:01:50;;;;;;;18.70;9.20;;;;;;;;;;5004769;28;20485;-72
2022/12/08 14:04:21;;;;;;;14.38;8.02;;;;;;;;;;5005810;28;20084;-73
2022/12/08 14:06:49;;;;;;;15.43;7.70;;;;;;;;;;5005690;28;20044;-72
2022/12/08 14:09:16;;;;;;;17.30;8.20;;;;;;;;;;5003027;28;20042;-73
2022/12/08 14:11:47;;;;;;;17.63;7.82;;;;;;;;;;5004913;28;20041;-73
2022/12/08 14:14:14;;;;;;;;;;;;;;;;;;5002205;28;20050;-73
2022/12/08 14:16:42;;;;;;;16.75;7.38;;;;;;;;;;5004765;28;19917;-74
2022/12/08 14:19:16;;;;;;;18.48;7.50;;;;;;;;;;5003648;28;20030;-74
2022/12/08 14:21:45;;;;;;;19.27;9.00;;;;;;;;;;5004671;28;20869;-74
2022/12/08 14:24:11;;;;;;;25.88;14.57;;;;;;;;;;5002752;28;20034;-74
2022/12/08 14:26:37;;;;;;;19.58;11.02;;;;;;;;;;5002118;28;20037;-74
2022/12/08 14:29:06;;;;;;;52.97;26.77;;;;;;;;;;5004316;28;20044;-74
2022/12/08 14:31:32;;;;;;;32.38;16.70;;;;;;;;;;5004045;28;20058;-74
2022/12/08 14:33:58;;;;;;;22.73;8.63;;;;;;;;;;5000092;28;20064;-74